sensor_id;sensor_type;location;lat;lon;timestamp;P1;durP1;ratioP1;P2;durP2;ratioP2
11524;SDS011;5819;49.648;8.330;2023-12-20T00:01:45;4.25;;;2.53;;
11524;SDS011;5819;49.648;8.330;2023-12-20T00:04:13;5.00;;;3.58;;
11524;SDS011;5819;49.648;8.330;2023-12-20T00:06:43;3.50;;;2.47;;
11524;SDS011;5819;49.648;8.330;2023-12-20T00:09:11;2.67;;;2.47;;
11524;SDS011;5819;49.648;8.330;2023-12-20T00:11:38;6.22;;;4.65;;
11524;SDS011;5819;49.648;8.330;2023-12-20T00:14:08;5.05;;;2.75;;
11524;SDS011;5819;49.648;8.330;2023-12-20T00:16:36;3.08;;;2.08;;
11524;SDS011;5819;49.648;8.330;2023-12-20T00:19:13;3.65;;;2.47;;
11524;SDS011;5819;49.648;8.330;2023-12-20T00:21:43;2.72;;;2.28;;
11524;SDS011;5819;49.648;8.330;2023-12-20T00:24:11;2.33;;;2.08;;
11524;SDS011;5819;49.648;8.330;2023-12-20T00:26:39;3.30;;;1.90;;
11524;SDS011;5819;49.648;8.330;2023-12-20T00:29:07;4.22;;;1.80;;
11524;SDS011;5819;49.648;8.330;2023-12-20T00:31:35;11.52;;;7.72;;
11524;SDS011;5819;49.648;8.330;2023-12-20T00:34:03;3.42;;;2.65;;
11524;SDS011;5819;49.648;8.330;2023-12-20T00:36:31;2.83;;;2.28;;
11524;SDS011;5819;49.648;8.330;2023-12-20T00:39:00;4.22;;;2.33;;
11524;SDS011;5819;49.648;8.330;2023-12-20T00:41:28;4.20;;;2.10;;
11524;SDS011;5819;49.648;8.330;2023-12-20T00:43:56;2.88;;;2.13;;
11524;SDS011;5819;49.648;8.330;2023-12-20T00:46:24;3.00;;;2.10;;
11524;SDS011;5819;49.648;8.330;2023-12-20T00:48:52;2.60;;;1.80;;
11524;SDS011;5819;49.648;8.330;2023-12-20T00:51:20;2.00;;;1.80;;
11524;SDS011;5819;49.648;8.330;2023-12-20T00:53:49;2.17;;;1.95;;
11524;SDS011;5819;49.648;8.330;2023-12-20T00:56:22;3.00;;;2.10;;
11524;SDS011;5819;49.648;8.330;2023-12-20T00:58:50;1.75;;;1.60;;
11524;SDS011;5819;49.648;8.330;2023-12-20T01:01:18;2.72;;;1.80;;
11524;SDS011;5819;49.648;8.330;2023-12-20T01:03:46;2.63;;;2.00;;
11524;SDS011;5819;49.648;8.330;2023-12-20T01:06:15;2.70;;;2.20;;
11524;SDS011;5819;49.648;8.330;2023-12-20T01:08:42;2.20;;;2.00;;
11524;SDS011;5819;49.648;8.330;2023-12-20T01:11:10;3.45;;;1.95;;
11524;SDS011;5819;49.648;8.330;2023-12-20T01:13:39;2.60;;;2.22;;
11524;SDS011;5819;49.648;8.330;2023-12-20T01:16:08;2.47;;;2.17;;
11524;SDS011;5819;49.648;8.330;2023-12-20T01:18:38;2.30;;;1.88;;
11524;SDS011;5819;49.648;8.330;2023-12-20T01:21:06;2.55;;;1.90;;
11524;SDS011;5819;49.648;8.330;2023-12-20T01:23:33;2.67;;;2.08;;
11524;SDS011;5819;49.648;8.330;2023-12-20T01:26:01;2.63;;;2.15;;
11524;SDS011;5819;49.648;8.330;2023-12-20T01:28:31;1.75;;;1.63;;
11524;SDS011;5819;49.648;8.330;2023-12-20T01:31:00;3.75;;;2.00;;
11524;SDS011;5819;49.648;8.330;2023-12-20T01:33:28;1.95;;;1.60;;
11524;SDS011;5819;49.648;8.330;2023-12-20T01:35:55;3.15;;;1.95;;
11524;SDS011;5819;49.648;8.330;2023-12-20T01:38:23;2.38;;;1.90;;
11524;SDS011;5819;49.648;8.330;2023-12-20T01:40:51;1.90;;;1.73;;
11524;SDS011;5819;49.648;8.330;2023-12-20T01:43:19;3.03;;;1.67;;
11524;SDS011;5819;49.648;8.330;2023-12-20T01:45:48;1.83;;;1.55;;
11524;SDS011;5819;49.648;8.330;2023-12-20T01:48:18;2.10;;;1.58;;
11524;SDS011;5819;49.648;8.330;2023-12-20T01:50:47;1.67;;;1.38;;
11524;SDS011;5819;49.648;8.330;2023-12-20T01:53:16;1.80;;;1.52;;
11524;SDS011;5819;49.648;8.330;2023-12-20T01:55:45;1.70;;;1.42;;
11524;SDS011;5819;49.648;8.330;2023-12-20T01:58:13;2.45;;;1.30;;
11524;SDS011;5819;49.648;8.330;2023-12-20T02:00:42;1.60;;;1.20;;
11524;SDS011;5819;49.648;8.330;2023-12-20T02:03:10;1.75;;;1.40;;
11524;SDS011;5819;49.648;8.330;2023-12-20T02:05:40;1.50;;;1.05;;
11524;SDS011;5819;49.648;8.330;2023-12-20T02:08:08;1.33;;;1.13;;
11524;SDS011;5819;49.648;8.330;2023-12-20T02:10:35;2.38;;;1.33;;
11524;SDS011;5819;49.648;8.330;2023-12-20T02:13:03;3.22;;;1.40;;
11524;SDS011;5819;49.648;8.330;2023-12-20T02:15:31;1.50;;;1.40;;
11524;SDS011;5819;49.648;8.330;2023-12-20T02:17:59;1.55;;;1.45;;
11524;SDS011;5819;49.648;8.330;2023-12-20T02:20:27;1.70;;;1.48;;
11524;SDS011;5819;49.648;8.330;2023-12-20T02:22:56;2.05;;;1.50;;
11524;SDS011;5819;49.648;8.330;2023-12-20T02:25:24;1.42;;;1.25;;
11524;SDS011;5819;49.648;8.330;2023-12-20T02:27:52;2.00;;;1.20;;
11524;SDS011;5819;49.648;8.330;2023-12-20T02:30:20;1.70;;;1.48;;
11524;SDS011;5819;49.648;8.330;2023-12-20T02:32:48;2.30;;;1.60;;
11524;SDS011;5819;49.648;8.330;2023-12-20T02:35:17;1.58;;;1.27;;
11524;SDS011;5819;49.648;8.330;2023-12-20T02:37:45;1.60;;;1.35;;
11524;SDS011;5819;49.648;8.330;2023-12-20T02:40:14;1.60;;;1.50;;
11524;SDS011;5819;49.648;8.330;2023-12-20T02:42:42;1.83;;;1.50;;
11524;SDS011;5819;49.648;8.330;2023-12-20T02:45:10;1.48;;;1.38;;
11524;SDS011;5819;49.648;8.330;2023-12-20T02:47:38;2.05;;;1.85;;
11524;SDS011;5819;49.648;8.330;2023-12-20T02:50:06;1.80;;;1.48;;
11524;SDS011;5819;49.648;8.330;2023-12-20T02:52:34;2.10;;;1.73;;
11524;SDS011;5819;49.648;8.330;2023-12-20T02:55:03;1.35;;;1.23;;
11524;SDS011;5819;49.648;8.330;2023-12-20T02:57:33;1.67;;;1.58;;
11524;SDS011;5819;49.648;8.330;2023-12-20T03:00:03;1.90;;;1.58;;
11524;SDS011;5819;49.648;8.330;2023-12-20T03:02:31;1.50;;;1.40;;
11524;SDS011;5819;49.648;8.330;2023-12-20T03:04:59;1.48;;;1.38;;
11524;SDS011;5819;49.648;8.330;2023-12-20T03:07:27;2.45;;;1.60;;
11524;SDS011;5819;49.648;8.330;2023-12-20T03:09:55;2.00;;;1.80;;
11524;SDS011;5819;49.648;8.330;2023-12-20T03:12:42;2.05;;;1.52;;
11524;SDS011;5819;49.648;8.330;2023-12-20T03:15:10;1.95;;;1.67;;
11524;SDS011;5819;49.648;8.330;2023-12-20T03:17:38;2.17;;;1.70;;
11524;SDS011;5819;49.648;8.330;2023-12-20T03:20:07;1.88;;;1.67;;
11524;SDS011;5819;49.648;8.330;2023-12-20T03:22:35;5.60;;;1.90;;
11524;SDS011;5819;49.648;8.330;2023-12-20T03:25:03;3.15;;;1.95;;
11524;SDS011;5819;49.648;8.330;2023-12-20T03:27:32;2.60;;;1.60;;
11524;SDS011;5819;49.648;8.330;2023-12-20T03:30:01;1.95;;;1.75;;
11524;SDS011;5819;49.648;8.330;2023-12-20T03:32:29;2.47;;;1.85;;
11524;SDS011;5819;49.648;8.330;2023-12-20T03:34:57;2.13;;;1.88;;
11524;SDS011;5819;49.648;8.330;2023-12-20T03:37:25;3.00;;;1.88;;
11524;SDS011;5819;49.648;8.330;2023-12-20T03:39:53;3.97;;;2.22;;
11524;SDS011;5819;49.648;8.330;2023-12-20T03:42:21;2.40;;;2.20;;
11524;SDS011;5819;49.648;8.330;2023-12-20T03:44:49;2.70;;;2.25;;
11524;SDS011;5819;49.648;8.330;2023-12-20T03:47:18;2.05;;;1.85;;
11524;SDS011;5819;49.648;8.330;2023-12-20T03:49:46;2.65;;;2.33;;
11524;SDS011;5819;49.648;8.330;2023-12-20T03:52:17;3.85;;;2.08;;
11524;SDS011;5819;49.648;8.330;2023-12-20T03:54:44;3.20;;;2.22;;
11524;SDS011;5819;49.648;8.330;2023-12-20T03:57:12;3.80;;;2.20;;
11524;SDS011;5819;49.648;8.330;2023-12-20T03:59:40;2.40;;;2.20;;
11524;SDS011;5819;49.648;8.330;2023-12-20T04:02:08;2.78;;;2.55;;
11524;SDS011;5819;49.648;8.330;2023-12-20T04:04:38;2.88;;;2.47;;
11524;SDS011;5819;49.648;8.330;2023-12-20T04:07:05;2.72;;;2.50;;
11524;SDS011;5819;49.648;8.330;2023-12-20T04:09:34;3.80;;;2.65;;
11524;SDS011;5819;49.648;8.330;2023-12-20T04:12:02;4.32;;;3.92;;
11524;SDS011;5819;49.648;8.330;2023-12-20T04:14:32;3.60;;;3.30;;
11524;SDS011;5819;49.648;8.330;2023-12-20T04:16:59;4.28;;;3.78;;
11524;SDS011;5819;49.648;8.330;2023-12-20T04:19:27;4.03;;;3.63;;
11524;SDS011;5819;49.648;8.330;2023-12-20T04:21:57;3.80;;;3.50;;
11524;SDS011;5819;49.648;8.330;2023-12-20T04:24:25;3.97;;;3.58;;
11524;SDS011;5819;49.648;8.330;2023-12-20T04:26:53;4.47;;;4.07;;
11524;SDS011;5819;49.648;8.330;2023-12-20T04:29:21;4.97;;;3.72;;
11524;SDS011;5819;49.648;8.330;2023-12-20T04:31:49;4.47;;;3.80;;
11524;SDS011;5819;49.648;8.330;2023-12-20T04:34:17;3.67;;;3.38;;
11524;SDS011;5819;49.648;8.330;2023-12-20T04:36:45;4.03;;;3.60;;
11524;SDS011;5819;49.648;8.330;2023-12-20T04:39:15;3.95;;;3.55;;
11524;SDS011;5819;49.648;8.330;2023-12-20T04:41:42;4.10;;;3.75;;
11524;SDS011;5819;49.648;8.330;2023-12-20T04:44:10;3.85;;;3.55;;
11524;SDS011;5819;49.648;8.330;2023-12-20T04:46:38;4.40;;;4.00;;
11524;SDS011;5819;49.648;8.330;2023-12-20T04:49:06;6.25;;;4.50;;
11524;SDS011;5819;49.648;8.330;2023-12-20T04:51:34;4.18;;;3.80;;
11524;SDS011;5819;49.648;8.330;2023-12-20T04:54:02;5.10;;;4.57;;
11524;SDS011;5819;49.648;8.330;2023-12-20T04:56:31;5.35;;;4.75;;
11524;SDS011;5819;49.648;8.330;2023-12-20T04:58:59;5.93;;;5.32;;
11524;SDS011;5819;49.648;8.330;2023-12-20T05:01:27;5.50;;;4.97;;
11524;SDS011;5819;49.648;8.330;2023-12-20T05:03:55;4.90;;;4.50;;
11524;SDS011;5819;49.648;8.330;2023-12-20T05:06:23;5.88;;;5.32;;
11524;SDS011;5819;49.648;8.330;2023-12-20T05:08:51;5.80;;;5.20;;
11524;SDS011;5819;49.648;8.330;2023-12-20T05:11:19;5.43;;;4.93;;
11524;SDS011;5819;49.648;8.330;2023-12-20T05:13:48;7.22;;;6.53;;
11524;SDS011;5819;49.648;8.330;2023-12-20T05:16:16;5.45;;;4.95;;
11524;SDS011;5819;49.648;8.330;2023-12-20T05:18:45;5.57;;;5.07;;
11524;SDS011;5819;49.648;8.330;2023-12-20T05:21:14;6.80;;;4.90;;
11524;SDS011;5819;49.648;8.330;2023-12-20T05:23:42;5.28;;;4.78;;
11524;SDS011;5819;49.648;8.330;2023-12-20T05:26:10;4.90;;;4.40;;
11524;SDS011;5819;49.648;8.330;2023-12-20T05:28:38;5.65;;;5.15;;
11524;SDS011;5819;49.648;8.330;2023-12-20T05:31:07;5.78;;;4.40;;
11524;SDS011;5819;49.648;8.330;2023-12-20T05:33:35;4.72;;;4.32;;
11524;SDS011;5819;49.648;8.330;2023-12-20T05:36:04;4.28;;;3.88;;
11524;SDS011;5819;49.648;8.330;2023-12-20T05:38:32;3.97;;;3.58;;
11524;SDS011;5819;49.648;8.330;2023-12-20T05:40:59;3.97;;;3.50;;
11524;SDS011;5819;49.648;8.330;2023-12-20T05:43:27;3.80;;;3.30;;
11524;SDS011;5819;49.648;8.330;2023-12-20T05:45:55;4.85;;;2.90;;
11524;SDS011;5819;49.648;8.330;2023-12-20T05:48:24;4.13;;;2.97;;
11524;SDS011;5819;49.648;8.330;2023-12-20T05:50:52;3.55;;;3.15;;
11524;SDS011;5819;49.648;8.330;2023-12-20T05:53:20;3.75;;;3.10;;
11524;SDS011;5819;49.648;8.330;2023-12-20T05:55:48;4.05;;;2.53;;
11524;SDS011;5819;49.648;8.330;2023-12-20T05:58:16;3.42;;;2.90;;
11524;SDS011;5819;49.648;8.330;2023-12-20T06:00:44;3.72;;;2.50;;
11524;SDS011;5819;49.648;8.330;2023-12-20T06:03:12;3.30;;;1.92;;
11524;SDS011;5819;49.648;8.330;2023-12-20T06:05:41;2.70;;;1.98;;
11524;SDS011;5819;49.648;8.330;2023-12-20T06:08:10;3.17;;;2.30;;
11524;SDS011;5819;49.648;8.330;2023-12-20T06:10:37;2.92;;;1.90;;
11524;SDS011;5819;49.648;8.330;2023-12-20T06:13:05;2.67;;;1.95;;
11524;SDS011;5819;49.648;8.330;2023-12-20T06:15:34;5.05;;;2.22;;
11524;SDS011;5819;49.648;8.330;2023-12-20T06:18:02;3.05;;;1.50;;
11524;SDS011;5819;49.648;8.330;2023-12-20T06:20:31;4.55;;;1.60;;
11524;SDS011;5819;49.648;8.330;2023-12-20T06:23:01;2.67;;;1.25;;
11524;SDS011;5819;49.648;8.330;2023-12-20T06:25:29;3.25;;;1.30;;
11524;SDS011;5819;49.648;8.330;2023-12-20T06:27:57;5.20;;;1.50;;
11524;SDS011;5819;49.648;8.330;2023-12-20T06:30:24;3.83;;;1.50;;
11524;SDS011;5819;49.648;8.330;2023-12-20T06:32:54;3.30;;;1.48;;
11524;SDS011;5819;49.648;8.330;2023-12-20T06:35:24;6.55;;;1.95;;
11524;SDS011;5819;49.648;8.330;2023-12-20T06:37:53;3.45;;;1.60;;
11524;SDS011;5819;49.648;8.330;2023-12-20T06:40:28;3.92;;;2.17;;
11524;SDS011;5819;49.648;8.330;2023-12-20T06:42:56;4.65;;;1.77;;
11524;SDS011;5819;49.648;8.330;2023-12-20T06:45:37;4.20;;;1.90;;
11524;SDS011;5819;49.648;8.330;2023-12-20T06:48:05;5.20;;;2.08;;
11524;SDS011;5819;49.648;8.330;2023-12-20T06:50:33;6.65;;;2.35;;
11524;SDS011;5819;49.648;8.330;2023-12-20T06:53:06;7.35;;;4.03;;
11524;SDS011;5819;49.648;8.330;2023-12-20T06:55:35;27.48;;;18.15;;
11524;SDS011;5819;49.648;8.330;2023-12-20T06:58:04;10.10;;;5.53;;
11524;SDS011;5819;49.648;8.330;2023-12-20T07:00:32;6.65;;;3.47;;
11524;SDS011;5819;49.648;8.330;2023-12-20T07:03:00;5.38;;;3.08;;
11524;SDS011;5819;49.648;8.330;2023-12-20T07:05:28;6.10;;;3.00;;
11524;SDS011;5819;49.648;8.330;2023-12-20T07:07:56;7.53;;;2.97;;
11524;SDS011;5819;49.648;8.330;2023-12-20T07:10:24;5.15;;;3.53;;
11524;SDS011;5819;49.648;8.330;2023-12-20T07:12:54;5.82;;;3.17;;
11524;SDS011;5819;49.648;8.330;2023-12-20T07:15:22;9.13;;;4.05;;
11524;SDS011;5819;49.648;8.330;2023-12-20T07:17:51;6.05;;;3.97;;
11524;SDS011;5819;49.648;8.330;2023-12-20T07:20:19;8.63;;;3.95;;
11524;SDS011;5819;49.648;8.330;2023-12-20T07:22:47;4.85;;;3.58;;
11524;SDS011;5819;49.648;8.330;2023-12-20T07:25:14;6.53;;;3.20;;
11524;SDS011;5819;49.648;8.330;2023-12-20T07:27:42;9.43;;;3.83;;
11524;SDS011;5819;49.648;8.330;2023-12-20T07:30:13;10.13;;;3.77;;
11524;SDS011;5819;49.648;8.330;2023-12-20T07:32:41;12.20;;;3.50;;
11524;SDS011;5819;49.648;8.330;2023-12-20T07:35:09;5.90;;;2.30;;
11524;SDS011;5819;49.648;8.330;2023-12-20T07:37:37;6.30;;;2.80;;
11524;SDS011;5819;49.648;8.330;2023-12-20T07:40:05;5.87;;;2.60;;
11524;SDS011;5819;49.648;8.330;2023-12-20T07:42:34;4.73;;;2.70;;
11524;SDS011;5819;49.648;8.330;2023-12-20T07:45:02;6.43;;;3.37;;
11524;SDS011;5819;49.648;8.330;2023-12-20T07:47:32;5.20;;;3.38;;
11524;SDS011;5819;49.648;8.330;2023-12-20T07:50:00;5.93;;;2.87;;
11524;SDS011;5819;49.648;8.330;2023-12-20T07:52:29;8.00;;;2.50;;
11524;SDS011;5819;49.648;8.330;2023-12-20T07:54:57;6.43;;;2.43;;
11524;SDS011;5819;49.648;8.330;2023-12-20T07:57:28;7.50;;;2.10;;
11524;SDS011;5819;49.648;8.330;2023-12-20T07:59:56;4.27;;;1.83;;
11524;SDS011;5819;49.648;8.330;2023-12-20T08:02:24;3.10;;;2.10;;
11524;SDS011;5819;49.648;8.330;2023-12-20T08:04:53;5.50;;;1.77;;
11524;SDS011;5819;49.648;8.330;2023-12-20T08:07:20;7.00;;;2.43;;
11524;SDS011;5819;49.648;8.330;2023-12-20T08:09:48;7.03;;;3.20;;
11524;SDS011;5819;49.648;8.330;2023-12-20T08:12:18;7.37;;;3.37;;
11524;SDS011;5819;49.648;8.330;2023-12-20T08:14:46;7.83;;;3.83;;
11524;SDS011;5819;49.648;8.330;2023-12-20T08:17:13;6.97;;;3.23;;
11524;SDS011;5819;49.648;8.330;2023-12-20T08:19:42;7.67;;;3.60;;
11524;SDS011;5819;49.648;8.330;2023-12-20T08:22:12;7.85;;;3.28;;
11524;SDS011;5819;49.648;8.330;2023-12-20T08:24:39;5.27;;;3.03;;
11524;SDS011;5819;49.648;8.330;2023-12-20T08:27:07;4.23;;;2.63;;
11524;SDS011;5819;49.648;8.330;2023-12-20T08:29:35;7.50;;;3.10;;
11524;SDS011;5819;49.648;8.330;2023-12-20T08:32:03;7.53;;;3.50;;
11524;SDS011;5819;49.648;8.330;2023-12-20T08:34:32;7.07;;;3.58;;
11524;SDS011;5819;49.648;8.330;2023-12-20T08:37:00;7.13;;;3.97;;
11524;SDS011;5819;49.648;8.330;2023-12-20T08:39:29;7.50;;;4.00;;
11524;SDS011;5819;49.648;8.330;2023-12-20T08:42:00;6.47;;;4.05;;
11524;SDS011;5819;49.648;8.330;2023-12-20T08:44:28;9.48;;;5.40;;
11524;SDS011;5819;49.648;8.330;2023-12-20T08:46:55;12.30;;;5.07;;
11524;SDS011;5819;49.648;8.330;2023-12-20T08:49:23;10.10;;;3.95;;
11524;SDS011;5819;49.648;8.330;2023-12-20T08:51:52;8.23;;;4.90;;
11524;SDS011;5819;49.648;8.330;2023-12-20T08:54:20;7.82;;;4.03;;
11524;SDS011;5819;49.648;8.330;2023-12-20T08:56:49;6.38;;;3.42;;
11524;SDS011;5819;49.648;8.330;2023-12-20T08:59:16;22.45;;;4.57;;
11524;SDS011;5819;49.648;8.330;2023-12-20T09:01:45;8.45;;;3.72;;
11524;SDS011;5819;49.648;8.330;2023-12-20T09:04:14;8.23;;;3.30;;
11524;SDS011;5819;49.648;8.330;2023-12-20T09:06:42;5.55;;;2.63;;
11524;SDS011;5819;49.648;8.330;2023-12-20T09:09:10;6.72;;;2.88;;
11524;SDS011;5819;49.648;8.330;2023-12-20T09:11:40;9.70;;;2.88;;
11524;SDS011;5819;49.648;8.330;2023-12-20T09:14:09;6.00;;;3.00;;
11524;SDS011;5819;49.648;8.330;2023-12-20T09:16:37;5.35;;;2.25;;
11524;SDS011;5819;49.648;8.330;2023-12-20T09:19:05;5.03;;;2.25;;
11524;SDS011;5819;49.648;8.330;2023-12-20T09:21:33;13.27;;;4.20;;
11524;SDS011;5819;49.648;8.330;2023-12-20T09:24:01;7.60;;;2.20;;
11524;SDS011;5819;49.648;8.330;2023-12-20T09:26:29;6.70;;;2.60;;
11524;SDS011;5819;49.648;8.330;2023-12-20T09:28:57;11.23;;;2.38;;
11524;SDS011;5819;49.648;8.330;2023-12-20T09:31:26;9.73;;;2.22;;
11524;SDS011;5819;49.648;8.330;2023-12-20T09:33:54;7.30;;;2.00;;
11524;SDS011;5819;49.648;8.330;2023-12-20T09:36:22;10.18;;;2.53;;
11524;SDS011;5819;49.648;8.330;2023-12-20T09:38:50;6.70;;;2.25;;
11524;SDS011;5819;49.648;8.330;2023-12-20T09:41:18;10.18;;;2.30;;
11524;SDS011;5819;49.648;8.330;2023-12-20T09:43:46;5.57;;;1.95;;
11524;SDS011;5819;49.648;8.330;2023-12-20T09:46:16;8.20;;;2.45;;
11524;SDS011;5819;49.648;8.330;2023-12-20T09:48:51;7.97;;;2.60;;
11524;SDS011;5819;49.648;8.330;2023-12-20T09:51:19;7.45;;;2.38;;
11524;SDS011;5819;49.648;8.330;2023-12-20T09:53:48;8.85;;;2.42;;
11524;SDS011;5819;49.648;8.330;2023-12-20T09:56:16;4.38;;;1.92;;
11524;SDS011;5819;49.648;8.330;2023-12-20T09:58:44;9.85;;;2.60;;
11524;SDS011;5819;49.648;8.330;2023-12-20T10:01:12;7.07;;;2.35;;
11524;SDS011;5819;49.648;8.330;2023-12-20T10:03:42;6.50;;;2.42;;
11524;SDS011;5819;49.648;8.330;2023-12-20T10:06:12;4.25;;;2.03;;
11524;SDS011;5819;49.648;8.330;2023-12-20T10:08:40;13.75;;;2.58;;
11524;SDS011;5819;49.648;8.330;2023-12-20T10:11:08;5.63;;;1.95;;
11524;SDS011;5819;49.648;8.330;2023-12-20T10:13:38;5.03;;;2.15;;
11524;SDS011;5819;49.648;8.330;2023-12-20T10:16:07;8.18;;;2.35;;
11524;SDS011;5819;49.648;8.330;2023-12-20T10:18:35;8.20;;;2.15;;
11524;SDS011;5819;49.648;8.330;2023-12-20T10:21:05;9.05;;;2.60;;
11524;SDS011;5819;49.648;8.330;2023-12-20T10:23:35;7.18;;;2.95;;
11524;SDS011;5819;49.648;8.330;2023-12-20T10:26:05;6.50;;;3.05;;
11524;SDS011;5819;49.648;8.330;2023-12-20T10:28:33;7.30;;;3.08;;
11524;SDS011;5819;49.648;8.330;2023-12-20T10:31:02;7.70;;;2.80;;
11524;SDS011;5819;49.648;8.330;2023-12-20T10:33:31;9.40;;;2.60;;
11524;SDS011;5819;49.648;8.330;2023-12-20T10:36:00;7.68;;;2.35;;
11524;SDS011;5819;49.648;8.330;2023-12-20T10:38:28;8.70;;;2.10;;
11524;SDS011;5819;49.648;8.330;2023-12-20T10:40:58;8.65;;;2.70;;
11524;SDS011;5819;49.648;8.330;2023-12-20T10:43:27;7.70;;;2.80;;
11524;SDS011;5819;49.648;8.330;2023-12-20T10:45:57;8.07;;;2.60;;
11524;SDS011;5819;49.648;8.330;2023-12-20T10:48:25;6.00;;;2.70;;
11524;SDS011;5819;49.648;8.330;2023-12-20T10:50:56;9.48;;;2.47;;
11524;SDS011;5819;49.648;8.330;2023-12-20T10:53:25;7.60;;;2.80;;
11524;SDS011;5819;49.648;8.330;2023-12-20T10:55:54;9.57;;;2.97;;
11524;SDS011;5819;49.648;8.330;2023-12-20T10:58:25;8.63;;;2.85;;
11524;SDS011;5819;49.648;8.330;2023-12-20T11:00:55;12.60;;;4.45;;
11524;SDS011;5819;49.648;8.330;2023-12-20T11:03:28;8.63;;;2.70;;
11524;SDS011;5819;49.648;8.330;2023-12-20T11:06:02;7.05;;;2.97;;
11524;SDS011;5819;49.648;8.330;2023-12-20T11:08:36;9.48;;;3.53;;
11524;SDS011;5819;49.648;8.330;2023-12-20T11:11:12;9.57;;;3.90;;
11524;SDS011;5819;49.648;8.330;2023-12-20T11:13:55;12.70;;;4.28;;
11524;SDS011;5819;49.648;8.330;2023-12-20T11:16:27;14.07;;;3.88;;
11524;SDS011;5819;49.648;8.330;2023-12-20T11:19:10;9.07;;;3.63;;
11524;SDS011;5819;49.648;8.330;2023-12-20T11:21:41;12.18;;;4.00;;
11524;SDS011;5819;49.648;8.330;2023-12-20T11:24:09;12.10;;;3.88;;
11524;SDS011;5819;49.648;8.330;2023-12-20T11:26:37;6.50;;;3.42;;
11524;SDS011;5819;49.648;8.330;2023-12-20T11:32:02;11.43;;;3.80;;
11524;SDS011;5819;49.648;8.330;2023-12-20T11:34:33;10.90;;;3.35;;
11524;SDS011;5819;49.648;8.330;2023-12-20T11:37:03;10.45;;;3.78;;
11524;SDS011;5819;49.648;8.330;2023-12-20T11:39:31;9.73;;;3.95;;
11524;SDS011;5819;49.648;8.330;2023-12-20T11:42:03;13.05;;;3.70;;
11524;SDS011;5819;49.648;8.330;2023-12-20T11:44:34;11.80;;;3.50;;
11524;SDS011;5819;49.648;8.330;2023-12-20T11:47:03;9.88;;;3.47;;
11524;SDS011;5819;49.648;8.330;2023-12-20T11:49:31;11.00;;;3.58;;
11524;SDS011;5819;49.648;8.330;2023-12-20T11:51:59;9.52;;;3.90;;
11524;SDS011;5819;49.648;8.330;2023-12-20T11:54:27;10.85;;;3.05;;
11524;SDS011;5819;49.648;8.330;2023-12-20T11:56:58;12.48;;;3.40;;
11524;SDS011;5819;49.648;8.330;2023-12-20T11:59:25;11.27;;;3.28;;
11524;SDS011;5819;49.648;8.330;2023-12-20T12:01:55;9.93;;;3.63;;
11524;SDS011;5819;49.648;8.330;2023-12-20T12:04:27;6.47;;;3.05;;
11524;SDS011;5819;49.648;8.330;2023-12-20T12:06:55;11.70;;;3.35;;
11524;SDS011;5819;49.648;8.330;2023-12-20T12:09:23;8.20;;;3.35;;
11524;SDS011;5819;49.648;8.330;2023-12-20T12:11:51;10.88;;;3.88;;
11524;SDS011;5819;49.648;8.330;2023-12-20T12:14:19;8.88;;;2.92;;
11524;SDS011;5819;49.648;8.330;2023-12-20T12:16:47;7.97;;;3.13;;
11524;SDS011;5819;49.648;8.330;2023-12-20T12:19:23;7.00;;;3.03;;
11524;SDS011;5819;49.648;8.330;2023-12-20T12:22:03;11.65;;;3.22;;
11524;SDS011;5819;49.648;8.330;2023-12-20T12:24:32;8.82;;;3.53;;
11524;SDS011;5819;49.648;8.330;2023-12-20T12:27:00;13.60;;;3.70;;
11524;SDS011;5819;49.648;8.330;2023-12-20T12:29:28;6.28;;;3.33;;
11524;SDS011;5819;49.648;8.330;2023-12-20T12:31:56;10.35;;;3.45;;
11524;SDS011;5819;49.648;8.330;2023-12-20T12:34:28;9.95;;;3.03;;
11524;SDS011;5819;49.648;8.330;2023-12-20T12:36:56;8.52;;;3.22;;
11524;SDS011;5819;49.648;8.330;2023-12-20T12:39:24;6.60;;;3.22;;
11524;SDS011;5819;49.648;8.330;2023-12-20T12:41:52;10.77;;;3.65;;
11524;SDS011;5819;49.648;8.330;2023-12-20T12:44:20;9.32;;;3.40;;
11524;SDS011;5819;49.648;8.330;2023-12-20T12:46:50;10.65;;;3.63;;
11524;SDS011;5819;49.648;8.330;2023-12-20T12:49:19;11.05;;;4.10;;
11524;SDS011;5819;49.648;8.330;2023-12-20T12:51:49;11.80;;;3.47;;
11524;SDS011;5819;49.648;8.330;2023-12-20T12:54:17;8.90;;;3.30;;
11524;SDS011;5819;49.648;8.330;2023-12-20T12:56:45;12.60;;;4.05;;
11524;SDS011;5819;49.648;8.330;2023-12-20T12:59:14;9.52;;;3.55;;
11524;SDS011;5819;49.648;8.330;2023-12-20T13:01:42;12.82;;;3.72;;
11524;SDS011;5819;49.648;8.330;2023-12-20T13:04:10;9.52;;;3.10;;
11524;SDS011;5819;49.648;8.330;2023-12-20T13:06:38;10.10;;;3.50;;
11524;SDS011;5819;49.648;8.330;2023-12-20T13:09:09;11.35;;;2.67;;
11524;SDS011;5819;49.648;8.330;2023-12-20T13:11:37;5.68;;;2.83;;
11524;SDS011;5819;49.648;8.330;2023-12-20T13:14:05;8.10;;;2.65;;
11524;SDS011;5819;49.648;8.330;2023-12-20T13:16:36;12.50;;;3.10;;
11524;SDS011;5819;49.648;8.330;2023-12-20T13:19:04;11.48;;;3.08;;
11524;SDS011;5819;49.648;8.330;2023-12-20T13:21:32;10.25;;;2.75;;
11524;SDS011;5819;49.648;8.330;2023-12-20T13:24:00;12.48;;;3.05;;
11524;SDS011;5819;49.648;8.330;2023-12-20T13:26:30;7.57;;;3.33;;
11524;SDS011;5819;49.648;8.330;2023-12-20T13:28:58;11.77;;;2.90;;
11524;SDS011;5819;49.648;8.330;2023-12-20T13:31:26;9.13;;;2.63;;
11524;SDS011;5819;49.648;8.330;2023-12-20T13:33:55;6.50;;;2.00;;
11524;SDS011;5819;49.648;8.330;2023-12-20T13:36:22;7.47;;;2.38;;
11524;SDS011;5819;49.648;8.330;2023-12-20T13:38:51;7.13;;;2.47;;
11524;SDS011;5819;49.648;8.330;2023-12-20T13:41:19;10.10;;;2.47;;
11524;SDS011;5819;49.648;8.330;2023-12-20T13:43:49;9.77;;;2.92;;
11524;SDS011;5819;49.648;8.330;2023-12-20T13:46:17;5.85;;;2.47;;
11524;SDS011;5819;49.648;8.330;2023-12-20T13:48:45;8.30;;;2.95;;
11524;SDS011;5819;49.648;8.330;2023-12-20T13:51:12;11.23;;;2.75;;
11524;SDS011;5819;49.648;8.330;2023-12-20T13:53:40;6.35;;;2.03;;
11524;SDS011;5819;49.648;8.330;2023-12-20T13:56:08;6.18;;;2.53;;
11524;SDS011;5819;49.648;8.330;2023-12-20T13:58:36;9.35;;;2.03;;
11524;SDS011;5819;49.648;8.330;2023-12-20T14:01:05;7.07;;;1.92;;
11524;SDS011;5819;49.648;8.330;2023-12-20T14:03:34;11.75;;;2.20;;
11524;SDS011;5819;49.648;8.330;2023-12-20T14:06:02;8.30;;;2.20;;
11524;SDS011;5819;49.648;8.330;2023-12-20T14:08:31;8.07;;;2.80;;
11524;SDS011;5819;49.648;8.330;2023-12-20T14:10:59;8.63;;;2.55;;
11524;SDS011;5819;49.648;8.330;2023-12-20T14:13:27;7.65;;;2.13;;
11524;SDS011;5819;49.648;8.330;2023-12-20T14:15:55;10.10;;;2.22;;
11524;SDS011;5819;49.648;8.330;2023-12-20T14:18:24;9.18;;;2.58;;
11524;SDS011;5819;49.648;8.330;2023-12-20T14:20:52;4.55;;;2.20;;
11524;SDS011;5819;49.648;8.330;2023-12-20T14:23:20;7.10;;;2.47;;
11524;SDS011;5819;49.648;8.330;2023-12-20T14:25:49;7.47;;;2.30;;
11524;SDS011;5819;49.648;8.330;2023-12-20T14:28:18;10.23;;;2.30;;
11524;SDS011;5819;49.648;8.330;2023-12-20T14:30:47;8.52;;;2.03;;
11524;SDS011;5819;49.648;8.330;2023-12-20T14:33:15;7.50;;;2.75;;
11524;SDS011;5819;49.648;8.330;2023-12-20T14:35:44;7.57;;;2.20;;
11524;SDS011;5819;49.648;8.330;2023-12-20T14:38:12;7.05;;;2.40;;
11524;SDS011;5819;49.648;8.330;2023-12-20T14:40:41;5.20;;;1.90;;
11524;SDS011;5819;49.648;8.330;2023-12-20T14:43:09;11.52;;;3.00;;
11524;SDS011;5819;49.648;8.330;2023-12-20T14:45:37;7.00;;;2.53;;
11524;SDS011;5819;49.648;8.330;2023-12-20T14:48:05;7.72;;;2.45;;
11524;SDS011;5819;49.648;8.330;2023-12-20T14:50:33;11.80;;;2.72;;
11524;SDS011;5819;49.648;8.330;2023-12-20T14:53:04;8.18;;;2.17;;
11524;SDS011;5819;49.648;8.330;2023-12-20T14:55:32;6.40;;;2.42;;
11524;SDS011;5819;49.648;8.330;2023-12-20T14:58:01;8.20;;;2.50;;
11524;SDS011;5819;49.648;8.330;2023-12-20T15:00:29;8.95;;;2.35;;
11524;SDS011;5819;49.648;8.330;2023-12-20T15:02:56;9.07;;;2.95;;
11524;SDS011;5819;49.648;8.330;2023-12-20T15:05:24;11.18;;;4.80;;
11524;SDS011;5819;49.648;8.330;2023-12-20T15:07:53;9.70;;;2.78;;
11524;SDS011;5819;49.648;8.330;2023-12-20T15:10:22;14.13;;;3.42;;
11524;SDS011;5819;49.648;8.330;2023-12-20T15:12:50;10.93;;;2.92;;